Home   Weather   Portugal   Funchal   Past weeks
Flag for Portugal

Past Weather in Funchal, Madeira, Portugal — Yesterday and Last 2 Weeks

Currently: 68 °F. Passing clouds. (Weather station: Aeroporto Da Madeira, Portugal). See more current weather

Past Weather in Funchal — Graph

°F

Funchal Temperature Yesterday

Maximum temperature yesterday: 70 °F (at 11:30 am)
Minimum temperature yesterday: 63 °F (at 3:30 am)
Average temperature yesterday: 66 °F

High & Low Weather Summary for the Past Weeks

 TemperatureHumidityPressure
High77 °F (Apr 10, 3:00 pm)88% (Apr 14, 8:00 pm)30.33 "Hg (Apr 14, 8:00 pm)
Low61 °F (Apr 9, 7:00 am)22% (Apr 10, 4:00 pm)29.95 "Hg (Apr 18, 5:00 am)
Average67 °F65%30.09 "Hg
* Reported Apr 8 8:00 pm — Apr 23 8:30 pm, Funchal. Weather by CustomWeather, © 2024

Note: Actual official high and low records may vary slightly from our data, if they occured in-between our weather recording intervals... More about our weather records

Funchal Weather History for the Previous 24 Hours

Scroll right to see more
 ConditionsComfort  
Time TempWeatherWind HumidityBarometerVisibility
8:30 pm
Tue, Apr 23
66 °FPassing clouds.20 mph68%30.04 "HgN/A
8:00 pm68 °FPassing clouds.22 mph69%30.04 "HgN/A
7:30 pm70 °FPassing clouds.18 mph64%30.04 "HgN/A
7:00 pm70 °FPassing clouds.23 mph64%30.04 "HgN/A
6:00 pm73 °FPassing clouds.24 mph57%30.04 "HgN/A
5:30 pm73 °FPassing clouds.20 mph57%30.04 "HgN/A
5:00 pm75 °FPassing clouds.16 mph50%30.04 "HgN/A
4:30 pm75 °FPassing clouds.16 mph54%30.04 "HgN/A
4:00 pm73 °FPassing clouds.17 mph61%30.04 "HgN/A
3:30 pm73 °FPassing clouds.17 mph61%30.04 "HgN/A
3:00 pm75 °FPassing clouds.18 mph54%30.04 "HgN/A
2:00 pm73 °FPassing clouds.16 mph57%30.07 "HgN/A
1:30 pm72 °FPassing clouds.16 mph57%30.07 "HgN/A
1:00 pm73 °FPassing clouds.15 mph57%30.07 "HgN/A
12:30 pm73 °FPassing clouds.15 mph57%30.07 "HgN/A
12:00 pm72 °FPassing clouds.15 mph57%30.07 "HgN/A
11:30 am72 °FPassing clouds.17 mph57%30.04 "HgN/A
11:00 am72 °FPassing clouds.17 mph57%30.04 "HgN/A
10:30 am70 °FPassing clouds.17 mph57%30.04 "HgN/A
10:00 am70 °FPassing clouds.18 mph60%30.04 "HgN/A
9:30 am70 °FPassing clouds.16 mph60%30.01 "HgN/A
9:00 am66 °FScattered clouds.16 mph68%30.01 "HgN/A
8:30 am64 °FScattered clouds.18 mph73%30.01 "HgN/A
8:00 am64 °FPassing clouds.17 mph73%30.01 "HgN/A
7:30 am64 °FPassing clouds.17 mph73%30.01 "HgN/A
7:00 am64 °FPassing clouds.17 mph73%30.01 "HgN/A
6:30 am64 °FPassing clouds.13 mph73%30.01 "HgN/A
6:00 am64 °FPassing clouds.10 mph73%30.01 "HgN/A
5:30 am64 °FPassing clouds.12 mph73%30.01 "HgN/A
5:00 am64 °FPassing clouds.9 mph73%30.01 "HgN/A
4:30 am64 °FPassing clouds.10 mph73%30.01 "HgN/A
4:00 am64 °FPassing clouds.10 mph73%30.01 "HgN/A
3:30 am64 °FPassing clouds.12 mph73%30.01 "HgN/A
2:30 am64 °FPassing clouds.12 mph78%30.04 "HgN/A
2:00 am66 °FPassing clouds.12 mph73%30.04 "HgN/A
1:30 am66 °FPassing clouds.13 mph73%30.04 "HgN/A
1:00 am66 °FPassing clouds.14 mph73%30.04 "HgN/A
12:30 am66 °FPassing clouds.15 mph73%30.04 "HgN/A
12:00 am66 °FPassing clouds.15 mph73%30.04 "HgN/A
11:30 pm
Mon, Apr 22
66 °FPassing clouds.16 mph73%30.04 "HgN/A
11:00 pm66 °FPassing clouds.16 mph73%30.04 "HgN/A
10:30 pm66 °FPassing clouds.13 mph73%30.04 "HgN/A
10:00 pm66 °FPassing clouds.13 mph73%30.04 "HgN/A
9:30 pm66 °FScattered clouds.15 mph73%30.04 "HgN/A
9:00 pm66 °FScattered clouds.14 mph73%30.01 "HgN/A
Weather by CustomWeather, © 2024

See weather overview